createdAt,value
2022-10-14T00:04:05.434Z,67.87
2022-10-14T00:09:26.249Z,67.66
2022-10-14T00:14:48.383Z,68.31
2022-10-14T00:20:09.519Z,68.55
2022-10-14T00:25:30.495Z,68.69
2022-10-14T00:31:01.567Z,69.01
2022-10-14T00:36:24.504Z,69.04
2022-10-14T00:41:45.548Z,69.06
2022-10-14T00:47:06.335Z,69.18
2022-10-14T00:52:27.659Z,69.14
2022-10-14T00:57:48.608Z,69.32
2022-10-14T01:03:17.342Z,69.16
2022-10-14T01:08:47.105Z,69.32
2022-10-14T01:14:28.087Z,68.90
2022-10-14T01:20:38.385Z,69.23
2022-10-14T01:26:10.960Z,69.11
2022-10-14T01:31:35.646Z,68.68
2022-10-14T01:37:09.308Z,68.72
2022-10-14T01:42:38.355Z,69.22
2022-10-14T01:48:00.802Z,69.07
2022-10-14T01:53:49.002Z,69.07
2022-10-14T01:59:13.565Z,68.86
2022-10-14T02:04:34.346Z,68.78
2022-10-14T02:10:01.076Z,68.88
2022-10-14T02:15:56.217Z,69.32
2022-10-14T02:21:24.731Z,68.96
2022-10-14T02:26:47.514Z,69.19
2022-10-14T02:32:11.173Z,69.18
2022-10-14T02:37:33.726Z,69.44
2022-10-14T02:42:54.246Z,69.16
2022-10-14T02:48:15.264Z,68.97
2022-10-14T02:53:35.887Z,68.88
2022-10-14T02:58:56.541Z,69.15
2022-10-14T03:04:17.039Z,69.11
2022-10-14T03:09:37.696Z,68.91
2022-10-14T03:15:00.495Z,68.71
2022-10-14T03:20:21.140Z,69.52
2022-10-14T03:25:46.791Z,69.47
2022-10-14T03:31:21.132Z,69.08
2022-10-14T03:37:05.084Z,68.97
2022-10-14T03:42:28.157Z,69.06
2022-10-14T03:47:49.367Z,69.35
2022-10-14T03:53:09.948Z,69.36
2022-10-14T03:58:31.102Z,69.46
2022-10-14T04:03:58.257Z,69.35
2022-10-14T04:09:21.565Z,69.67
2022-10-14T04:14:42.964Z,69.33
2022-10-14T04:20:05.755Z,69.47
2022-10-14T04:25:27.321Z,69.63
2022-10-14T04:30:56.087Z,69.84
2022-10-14T04:36:21.852Z,69.89
2022-10-14T04:41:43.466Z,69.68
2022-10-14T04:47:09.133Z,69.49
2022-10-14T04:52:31.703Z,69.99
2022-10-14T04:58:01.737Z,69.87
2022-10-14T05:03:29.995Z,69.67
2022-10-14T05:08:52.598Z,69.98
2022-10-14T05:14:14.070Z,69.96
2022-10-14T05:19:37.203Z,69.67
2022-10-14T05:24:57.877Z,71.92
2022-10-14T05:30:18.894Z,70.90
2022-10-14T05:35:58.703Z,69.52
2022-10-14T05:41:22.221Z,69.46
2022-10-14T05:46:43.205Z,69.89
2022-10-14T05:52:04.780Z,69.47
2022-10-14T05:57:28.392Z,69.91
2022-10-14T06:02:49.173Z,69.82
2022-10-14T06:08:12.008Z,69.82
2022-10-14T06:13:32.959Z,69.94
2022-10-14T06:18:54.665Z,70.34
2022-10-14T06:24:16.410Z,70.23
2022-10-14T06:29:40.140Z,70.48
2022-10-14T06:35:01.138Z,70.95
2022-10-14T06:40:21.842Z,70.48
2022-10-14T06:45:42.496Z,70.48
2022-10-14T06:51:03.702Z,70.91
2022-10-14T06:56:24.430Z,70.84
2022-10-14T07:01:45.126Z,71.38
2022-10-14T07:07:07.190Z,71.04
2022-10-14T07:12:28.190Z,71.21
2022-10-14T07:17:48.831Z,71.10
2022-10-14T07:23:09.790Z,71.18
2022-10-14T07:28:30.529Z,71.09
2022-10-14T07:33:51.457Z,71.05
2022-10-14T07:39:12.340Z,71.68
2022-10-14T07:44:33.500Z,71.23
2022-10-14T07:49:54.429Z,71.18
2022-10-14T07:55:15.088Z,71.66
2022-10-14T08:00:37.494Z,71.58
2022-10-14T08:06:03.259Z,71.75
2022-10-14T08:11:26.943Z,71.50
2022-10-14T08:16:48.221Z,71.64
2022-10-14T08:22:09.755Z,71.44
2022-10-14T08:27:30.788Z,71.75
2022-10-14T08:32:51.418Z,71.48
2022-10-14T08:38:12.206Z,71.24
2022-10-14T08:44:13.345Z,71.05
2022-10-14T08:49:38.641Z,71.23
2022-10-14T08:55:05.345Z,71.40
2022-10-14T09:00:29.987Z,71.28
2022-10-14T09:05:58.727Z,71.44
2022-10-14T09:11:22.225Z,71.28
2022-10-14T09:16:50.376Z,71.13
2022-10-14T09:22:15.666Z,71.57
2022-10-14T09:27:38.006Z,71.27
2022-10-14T09:32:59.975Z,71.31
2022-10-14T09:38:21.564Z,71.49
2022-10-14T09:44:22.501Z,71.52
2022-10-14T09:49:47.078Z,71.44
2022-10-14T09:55:18.916Z,71.63
2022-10-14T10:00:40.631Z,71.34
2022-10-14T10:06:09.379Z,71.51
2022-10-14T10:11:38.288Z,71.55
2022-10-14T10:17:08.419Z,71.53
2022-10-14T10:22:34.157Z,71.64
2022-10-14T10:27:58.431Z,71.73
2022-10-14T10:33:26.472Z,71.53
2022-10-14T10:39:06.002Z,71.54
2022-10-14T10:44:58.868Z,71.57
2022-10-14T10:50:37.040Z,71.67
2022-10-14T10:56:04.432Z,71.67
2022-10-14T11:02:03.839Z,71.56
2022-10-14T11:07:43.101Z,71.60
2022-10-14T11:13:35.371Z,71.43
2022-10-14T11:19:14.677Z,71.37
2022-10-14T11:24:58.693Z,71.09
2022-10-14T11:30:32.607Z,71.05
2022-10-14T11:36:31.551Z,71.20
2022-10-14T11:42:01.554Z,71.12
2022-10-14T11:47:34.772Z,70.84
2022-10-14T11:53:09.956Z,71.09
2022-10-14T11:58:35.190Z,71.67
2022-10-14T12:04:10.895Z,71.18
2022-10-14T12:09:39.139Z,70.58
2022-10-14T12:15:17.626Z,70.27
2022-10-14T12:20:51.750Z,70.04
2022-10-14T12:26:15.791Z,69.92
2022-10-14T12:31:39.151Z,70.19
2022-10-14T12:37:00.562Z,70.34
2022-10-14T12:42:22.352Z,70.11
2022-10-14T12:47:44.150Z,70.33
2022-10-14T12:53:15.944Z,70.07
2022-10-14T12:59:01.275Z,69.95
2022-10-14T13:04:22.275Z,69.94
2022-10-14T13:09:44.859Z,69.93
2022-10-14T13:15:48.727Z,69.59
2022-10-14T13:21:31.176Z,69.36
2022-10-14T13:26:54.814Z,69.39
2022-10-14T13:32:31.223Z,69.31
2022-10-14T13:38:02.146Z,69.28
2022-10-14T13:43:37.323Z,69.13
2022-10-14T13:49:05.416Z,69.25
2022-10-14T13:54:28.716Z,69.01
2022-10-14T14:00:37.286Z,68.63
2022-10-14T14:05:36.241Z,68.71
2022-10-14T14:11:18.961Z,68.94
2022-10-14T14:22:21.039Z,69.22
2022-10-14T14:27:49.284Z,68.69
2022-10-14T14:33:19.655Z,68.70
2022-10-14T14:38:51.724Z,68.34
2022-10-14T14:44:25.342Z,68.42
2022-10-14T14:49:54.088Z,67.83
2022-10-14T14:55:34.696Z,68.16
2022-10-14T15:00:56.325Z,68.34
2022-10-14T15:06:18.198Z,68.42
2022-10-14T15:11:58.001Z,68.33
2022-10-14T15:17:33.467Z,68.46
2022-10-14T15:22:54.296Z,68.40
2022-10-14T15:28:31.898Z,68.50
2022-10-14T15:33:53.404Z,68.26
2022-10-14T15:39:14.283Z,68.47
2022-10-14T15:44:35.009Z,68.43
2022-10-14T15:49:57.203Z,68.63
2022-10-14T15:55:23.083Z,69.00
2022-10-14T16:00:47.430Z,68.64
2022-10-14T16:06:09.099Z,69.08
2022-10-14T16:11:31.578Z,68.96
2022-10-14T16:16:52.853Z,68.55
2022-10-14T16:22:14.845Z,68.29
2022-10-14T16:27:35.962Z,68.48
2022-10-14T16:32:57.037Z,68.44
2022-10-14T16:38:17.591Z,68.43
2022-10-14T16:43:38.623Z,68.63
2022-10-14T16:48:59.629Z,68.45
2022-10-14T16:54:21.996Z,68.79
2022-10-14T16:59:42.696Z,68.71
2022-10-14T17:05:03.448Z,68.87
2022-10-14T17:10:25.248Z,69.32
2022-10-14T17:15:45.922Z,69.16
2022-10-14T17:21:09.006Z,69.24
2022-10-14T17:26:31.551Z,68.96
2022-10-14T17:31:52.423Z,69.00
2022-10-14T17:37:13.217Z,68.97
2022-10-14T17:42:34.082Z,68.93
2022-10-14T17:47:56.568Z,68.98
2022-10-14T17:53:17.547Z,69.10
2022-10-14T17:58:39.180Z,69.06
2022-10-14T18:04:01.021Z,69.17
2022-10-14T18:09:21.758Z,69.17
2022-10-14T18:14:42.531Z,69.38
2022-10-14T18:20:05.501Z,69.28
2022-10-14T18:25:26.515Z,69.25
2022-10-14T18:30:47.144Z,69.39
2022-10-14T18:36:11.113Z,69.15
2022-10-14T18:41:32.663Z,69.27
2022-10-14T18:46:55.847Z,69.36
2022-10-14T18:52:18.907Z,69.47
2022-10-14T18:57:39.574Z,69.48
2022-10-14T19:03:00.043Z,69.56
2022-10-14T19:08:22.920Z,69.50
2022-10-14T19:13:45.413Z,69.50
2022-10-14T19:19:16.573Z,69.74
2022-10-14T19:24:37.929Z,69.62
2022-10-14T19:29:58.628Z,69.48
2022-10-14T19:35:21.810Z,69.65
2022-10-14T19:40:42.556Z,69.67
2022-10-14T19:46:09.312Z,69.74
2022-10-14T19:51:31.329Z,69.88
2022-10-14T19:56:52.250Z,70.08
2022-10-14T20:02:15.106Z,70.04
2022-10-14T20:07:35.693Z,70.10
2022-10-14T20:12:56.437Z,70.04
2022-10-14T20:18:18.522Z,70.25
2022-10-14T20:23:39.703Z,70.17
2022-10-14T20:29:00.375Z,70.08
2022-10-14T20:34:21.078Z,69.94
2022-10-14T20:39:41.698Z,69.91
2022-10-14T20:45:02.617Z,70.08
2022-10-14T20:50:23.630Z,70.08
2022-10-14T20:55:44.426Z,70.17
2022-10-14T21:01:16.508Z,70.07
2022-10-14T21:06:38.922Z,70.24
2022-10-14T21:11:59.940Z,70.07
2022-10-14T21:17:20.807Z,70.13
2022-10-14T21:22:41.687Z,70.10
2022-10-14T21:28:02.293Z,70.02
2022-10-14T21:33:22.844Z,69.92
2022-10-14T21:38:43.598Z,70.12
2022-10-14T21:44:05.228Z,70.21
2022-10-14T21:49:26.572Z,70.11
2022-10-14T21:54:47.225Z,70.33
2022-10-14T22:00:09.317Z,70.39
2022-10-14T22:05:30.026Z,70.34
2022-10-14T22:10:50.568Z,70.36
2022-10-14T22:16:13.540Z,70.28
2022-10-14T22:21:36.716Z,70.21
2022-10-14T22:26:57.666Z,70.25
2022-10-14T22:32:18.272Z,70.44
2022-10-14T22:37:38.838Z,70.46
2022-10-14T22:42:59.483Z,70.56
2022-10-14T22:48:20.057Z,70.51
2022-10-14T22:53:41.852Z,70.64
2022-10-14T22:59:05.747Z,70.45
2022-10-14T23:04:26.461Z,70.52
2022-10-14T23:09:47.259Z,70.61
2022-10-14T23:15:08.413Z,70.44
2022-10-14T23:20:29.373Z,70.74
2022-10-14T23:25:50.325Z,70.35
2022-10-14T23:31:13.611Z,70.40
2022-10-14T23:36:34.659Z,70.32
2022-10-14T23:41:55.195Z,70.53
2022-10-14T23:47:15.801Z,70.52
2022-10-14T23:52:36.298Z,70.62
2022-10-14T23:57:56.841Z,70.60
